SBKGSBPL

Guest
Details From SBKG - PRESIDENTE JOAO SUASSUNA
To SBPL - SENADOR NILO COELHO
Flight Number -
Tags generated
Created
Modified
Stats Distance 366 nm / 678 km
Max Altitude 34,000 ft / 10,363 m
Waypoints 7
Social Downloads 0
Likes 0
Share

Download

Looking for another format? Having issues loading an existing format? Contact us
Advertisement - Login to hide

Notes

Basic altitude profile: - Ascent Rate: 2500ft/min - Ascent Speed: 250kts - Cruise Altitude: 35000ft - Cruise Speed: 420kts - Descent Rate: 1500ft/min - Descent Speed: 250kts Options: - Use NATs: yes - Use PACOTS: yes - Use low airways: yes - Use high airways: yes

Route

SBKG OPSUS UZ7 EDITE OPABA UW14 PTL SBPL

ID Type Via Altitude (ft/m) Position (lat/lon) Dist (leg/tot) Name
O SBKG APT - 0 / 0 -7.26992 / -35.89636 - / 0 nm PRESIDENTE JOAO SUASSUNA
OPSUS FIX - 34,000 / 10,363 -7.11667 / -37.59917 101 / 101 nm
EDITE FIX UZ7 (AWY-HI) 34,000 / 10,363 -6.90750 / -38.14000 34 / 136 nm
OPABA FIX - 34,000 / 10,363 -6.65850 / -38.47717 25 / 161 nm
BERTI FIX UW14 (AWY-HI) 24,500 / 7,468 -7.91283 / -39.43933 94 / 256 nm
PTL VOR UW14 (AWY-HI) 24,500 / 7,468 -9.36317 / -40.56133 109 / 365 nm PETROLINA VOR-DME
O SBPL APT - 0 / 0 -9.36241 / -40.56910 0 / 366 nm SENADOR NILO COELHO

Altitude Profile

Advertisement - Login to hide

Weather


0- 5 10 15 20 25 30 35+ Temperature / °C

Clouds and Precipitation
Forecast for 2021-03-22 12:00 UTC. Updated 2 months ago

Ground ~20,000 ft ~40,000 ft Winds

SBKG

Details ICAO SBKG (CPV)
Name Campina Grande
Region Brazil
Timezone America/Fortaleza (UTC-3.0)
Stats Elevation 1,647 ft / 502 m (AMSL)
Location -7.269680° -35.895900°
Runways 1
Magnetic Variation 21.818° W

METAR

SBKG 140000Z 15002KT 9999 BKN008 22/21 Q1016

Decode

TAF

TAF SBKG 132114Z 1400/1412 11007KT 9999 BKN010 TN21/1409Z TX23/1412Z PROB30 1409/1412 4000 BR RMK PHI

Decode

Departure Runways

ID Width Length Bearing (true/mag) Surface Threshold Overrun Markings Lighting
15 138 ft / 42 m 5,279 ft / 1,609 m 125.25° / 147.07° ASPHALT 0 ft / 0 m 0 ft / 0 m APP EDGE THRESHOLD REIL-OMNI
33 138 ft / 42 m 5,279 ft / 1,609 m 305.25° / 327.07° ASPHALT 0 ft / 0 m 200 ft / 61 m APP EDGE THRESHOLD REIL-OMNI

SBPL

Details ICAO SBPL (PNZ)
Name Petrolina
Region Brazil
Timezone America/Recife (UTC-3.0)
Stats Elevation 1,260 ft / 384 m (AMSL)
Location -9.362470° -40.569100°
Runways 1
Magnetic Variation 22.635° W

METAR

SBPL 140000Z 17004KT 9999 FEW025 26/20 Q1016

Decode

TAF

TAF SBPL 132114Z 1400/1424 16007KT 9999 FEW030 TN23/1409Z TX31/1418Z RMK PHI

Decode

Destination Runways

ID Width Length Bearing (true/mag) Surface Threshold Overrun Markings Lighting
13 148 ft / 45 m 10,656 ft / 3,248 m 109.08° / 131.72° ASPHALT 1,608 ft / 490 m 197 ft / 60 m PREC-APP CENTERLINE EDGE THRESHOLD REIL-OMNI
31 148 ft / 45 m 10,656 ft / 3,248 m 289.08° / 311.71° ASPHALT 0 ft / 0 m 197 ft / 60 m PREC-APP CENTERLINE EDGE THRESHOLD REIL-OMNI

Popular Alternatives